sensor_id;sensor_type;location;lat;lon;timestamp;P1;durP1;ratioP1;P2;durP2;ratioP2
38312;SDS011;24114;52.260;6.714;2022-10-30T00:00:13;12.27;;;6.03;;
38312;SDS011;24114;52.260;6.714;2022-10-30T00:02:41;11.75;;;6.00;;
38312;SDS011;24114;52.260;6.714;2022-10-30T00:05:09;10.82;;;5.70;;
38312;SDS011;24114;52.260;6.714;2022-10-30T00:07:37;10.68;;;5.82;;
38312;SDS011;24114;52.260;6.714;2022-10-30T00:10:05;11.35;;;5.90;;
38312;SDS011;24114;52.260;6.714;2022-10-30T00:12:33;11.90;;;5.60;;
38312;SDS011;24114;52.260;6.714;2022-10-30T00:15:01;9.17;;;5.30;;
38312;SDS011;24114;52.260;6.714;2022-10-30T00:17:30;11.25;;;5.80;;
38312;SDS011;24114;52.260;6.714;2022-10-30T00:19:59;8.80;;;5.50;;
38312;SDS011;24114;52.260;6.714;2022-10-30T00:22:26;9.43;;;5.90;;
38312;SDS011;24114;52.260;6.714;2022-10-30T00:24:54;10.80;;;6.00;;
38312;SDS011;24114;52.260;6.714;2022-10-30T00:27:22;12.27;;;5.97;;
38312;SDS011;24114;52.260;6.714;2022-10-30T00:29:49;10.65;;;5.78;;
38312;SDS011;24114;52.260;6.714;2022-10-30T00:32:17;10.95;;;5.60;;
38312;SDS011;24114;52.260;6.714;2022-10-30T00:34:46;8.48;;;5.63;;
38312;SDS011;24114;52.260;6.714;2022-10-30T00:37:14;11.50;;;6.47;;
38312;SDS011;24114;52.260;6.714;2022-10-30T00:39:41;11.43;;;6.65;;
38312;SDS011;24114;52.260;6.714;2022-10-30T00:42:10;10.85;;;6.15;;
38312;SDS011;24114;52.260;6.714;2022-10-30T00:44:40;9.70;;;5.85;;
38312;SDS011;24114;52.260;6.714;2022-10-30T00:47:12;10.45;;;5.95;;
38312;SDS011;24114;52.260;6.714;2022-10-30T00:49:48;10.67;;;5.70;;
38312;SDS011;24114;52.260;6.714;2022-10-30T00:52:17;11.53;;;6.30;;
38312;SDS011;24114;52.260;6.714;2022-10-30T00:54:46;10.55;;;6.32;;
38312;SDS011;24114;52.260;6.714;2022-10-30T00:57:14;11.98;;;5.78;;
38312;SDS011;24114;52.260;6.714;2022-10-30T00:59:41;10.50;;;6.38;;
38312;SDS011;24114;52.260;6.714;2022-10-30T01:02:09;11.15;;;6.05;;
38312;SDS011;24114;52.260;6.714;2022-10-30T01:04:37;9.93;;;5.95;;
38312;SDS011;24114;52.260;6.714;2022-10-30T01:07:07;9.48;;;6.35;;
38312;SDS011;24114;52.260;6.714;2022-10-30T01:09:38;8.65;;;6.07;;
38312;SDS011;24114;52.260;6.714;2022-10-30T01:12:06;8.63;;;6.07;;
38312;SDS011;24114;52.260;6.714;2022-10-30T01:14:34;9.53;;;6.27;;
38312;SDS011;24114;52.260;6.714;2022-10-30T01:17:08;11.60;;;6.60;;
38312;SDS011;24114;52.260;6.714;2022-10-30T01:19:47;10.77;;;6.43;;
38312;SDS011;24114;52.260;6.714;2022-10-30T01:22:28;11.85;;;6.68;;
38312;SDS011;24114;52.260;6.714;2022-10-30T01:25:06;12.32;;;6.55;;
38312;SDS011;24114;52.260;6.714;2022-10-30T01:27:41;10.77;;;6.88;;
38312;SDS011;24114;52.260;6.714;2022-10-30T01:30:19;15.00;;;6.10;;
38312;SDS011;24114;52.260;6.714;2022-10-30T01:32:58;11.30;;;7.00;;
38312;SDS011;24114;52.260;6.714;2022-10-30T01:35:32;13.57;;;7.13;;
38312;SDS011;24114;52.260;6.714;2022-10-30T01:38:05;11.20;;;6.47;;
38312;SDS011;24114;52.260;6.714;2022-10-30T01:40:35;12.32;;;6.72;;
38312;SDS011;24114;52.260;6.714;2022-10-30T01:43:03;13.17;;;6.43;;
38312;SDS011;24114;52.260;6.714;2022-10-30T01:45:36;11.38;;;6.85;;
38312;SDS011;24114;52.260;6.714;2022-10-30T01:48:20;12.20;;;6.77;;
38312;SDS011;24114;52.260;6.714;2022-10-30T01:50:54;11.90;;;6.53;;
38312;SDS011;24114;52.260;6.714;2022-10-30T01:53:28;11.30;;;7.40;;
38312;SDS011;24114;52.260;6.714;2022-10-30T01:56:06;12.10;;;6.77;;
38312;SDS011;24114;52.260;6.714;2022-10-30T01:58:42;13.52;;;7.47;;
38312;SDS011;24114;52.260;6.714;2022-10-30T02:01:15;12.25;;;7.60;;
38312;SDS011;24114;52.260;6.714;2022-10-30T02:03:44;11.65;;;7.28;;
38312;SDS011;24114;52.260;6.714;2022-10-30T02:06:12;17.70;;;7.67;;
38312;SDS011;24114;52.260;6.714;2022-10-30T02:08:41;11.02;;;7.55;;
38312;SDS011;24114;52.260;6.714;2022-10-30T02:11:09;11.38;;;7.28;;
38312;SDS011;24114;52.260;6.714;2022-10-30T02:13:37;12.90;;;7.27;;
38312;SDS011;24114;52.260;6.714;2022-10-30T02:16:05;18.95;;;7.80;;
38312;SDS011;24114;52.260;6.714;2022-10-30T02:18:33;13.80;;;8.30;;
38312;SDS011;24114;52.260;6.714;2022-10-30T02:21:03;12.98;;;8.10;;
38312;SDS011;24114;52.260;6.714;2022-10-30T02:23:31;12.40;;;7.82;;
38312;SDS011;24114;52.260;6.714;2022-10-30T02:25:59;12.60;;;8.33;;
38312;SDS011;24114;52.260;6.714;2022-10-30T02:28:27;12.07;;;7.55;;
38312;SDS011;24114;52.260;6.714;2022-10-30T02:30:54;11.57;;;7.57;;
38312;SDS011;24114;52.260;6.714;2022-10-30T02:33:23;11.27;;;7.78;;
38312;SDS011;24114;52.260;6.714;2022-10-30T02:35:51;11.98;;;8.00;;
38312;SDS011;24114;52.260;6.714;2022-10-30T02:38:21;11.65;;;7.82;;
38312;SDS011;24114;52.260;6.714;2022-10-30T02:40:49;11.65;;;7.97;;
38312;SDS011;24114;52.260;6.714;2022-10-30T02:43:17;12.50;;;7.68;;
38312;SDS011;24114;52.260;6.714;2022-10-30T02:45:48;11.25;;;8.07;;
38312;SDS011;24114;52.260;6.714;2022-10-30T02:48:16;13.30;;;8.13;;
38312;SDS011;24114;52.260;6.714;2022-10-30T02:50:44;11.20;;;8.07;;
38312;SDS011;24114;52.260;6.714;2022-10-30T02:53:11;13.75;;;8.40;;
38312;SDS011;24114;52.260;6.714;2022-10-30T02:55:41;15.27;;;7.93;;
38312;SDS011;24114;52.260;6.714;2022-10-30T02:58:08;12.43;;;8.52;;
38312;SDS011;24114;52.260;6.714;2022-10-30T03:00:36;12.85;;;7.97;;
38312;SDS011;24114;52.260;6.714;2022-10-30T03:03:04;11.23;;;7.75;;
38312;SDS011;24114;52.260;6.714;2022-10-30T03:05:32;11.03;;;8.00;;
38312;SDS011;24114;52.260;6.714;2022-10-30T03:08:00;13.13;;;8.13;;
38312;SDS011;24114;52.260;6.714;2022-10-30T03:10:28;10.70;;;7.53;;
38312;SDS011;24114;52.260;6.714;2022-10-30T03:12:57;12.18;;;7.60;;
38312;SDS011;24114;52.260;6.714;2022-10-30T03:15:24;12.73;;;8.00;;
38312;SDS011;24114;52.260;6.714;2022-10-30T03:17:52;11.57;;;7.85;;
38312;SDS011;24114;52.260;6.714;2022-10-30T03:20:21;11.37;;;8.03;;
38312;SDS011;24114;52.260;6.714;2022-10-30T03:22:48;11.48;;;7.90;;
38312;SDS011;24114;52.260;6.714;2022-10-30T03:25:16;12.73;;;7.88;;
38312;SDS011;24114;52.260;6.714;2022-10-30T03:27:49;9.63;;;7.80;;
38312;SDS011;24114;52.260;6.714;2022-10-30T03:30:18;11.70;;;8.00;;
38312;SDS011;24114;52.260;6.714;2022-10-30T03:32:46;10.88;;;7.65;;
38312;SDS011;24114;52.260;6.714;2022-10-30T03:35:13;11.25;;;7.50;;
38312;SDS011;24114;52.260;6.714;2022-10-30T03:37:41;13.55;;;7.65;;
38312;SDS011;24114;52.260;6.714;2022-10-30T03:40:09;14.77;;;8.27;;
38312;SDS011;24114;52.260;6.714;2022-10-30T03:42:38;11.88;;;8.02;;
38312;SDS011;24114;52.260;6.714;2022-10-30T03:45:06;12.57;;;8.52;;
38312;SDS011;24114;52.260;6.714;2022-10-30T03:47:37;12.80;;;8.57;;
38312;SDS011;24114;52.260;6.714;2022-10-30T03:50:06;14.97;;;8.47;;
38312;SDS011;24114;52.260;6.714;2022-10-30T03:52:34;13.73;;;8.77;;
38312;SDS011;24114;52.260;6.714;2022-10-30T03:55:02;11.30;;;8.57;;
38312;SDS011;24114;52.260;6.714;2022-10-30T03:57:30;13.30;;;8.60;;
38312;SDS011;24114;52.260;6.714;2022-10-30T03:59:57;12.98;;;8.57;;
38312;SDS011;24114;52.260;6.714;2022-10-30T04:02:25;14.90;;;8.75;;
38312;SDS011;24114;52.260;6.714;2022-10-30T04:04:54;11.68;;;8.82;;
38312;SDS011;24114;52.260;6.714;2022-10-30T04:07:22;13.35;;;9.18;;
38312;SDS011;24114;52.260;6.714;2022-10-30T04:09:50;13.80;;;9.00;;
38312;SDS011;24114;52.260;6.714;2022-10-30T04:12:17;10.63;;;8.57;;
38312;SDS011;24114;52.260;6.714;2022-10-30T04:14:45;14.02;;;9.10;;
38312;SDS011;24114;52.260;6.714;2022-10-30T04:17:13;11.93;;;8.60;;
38312;SDS011;24114;52.260;6.714;2022-10-30T04:19:41;11.73;;;8.88;;
38312;SDS011;24114;52.260;6.714;2022-10-30T04:22:10;12.95;;;8.90;;
38312;SDS011;24114;52.260;6.714;2022-10-30T04:24:37;15.23;;;9.32;;
38312;SDS011;24114;52.260;6.714;2022-10-30T04:27:05;13.45;;;9.20;;
38312;SDS011;24114;52.260;6.714;2022-10-30T04:29:33;11.25;;;8.40;;
38312;SDS011;24114;52.260;6.714;2022-10-30T04:32:02;12.10;;;8.75;;
38312;SDS011;24114;52.260;6.714;2022-10-30T04:34:35;13.75;;;8.70;;
38312;SDS011;24114;52.260;6.714;2022-10-30T04:37:04;11.93;;;8.50;;
38312;SDS011;24114;52.260;6.714;2022-10-30T04:39:33;12.70;;;8.50;;
38312;SDS011;24114;52.260;6.714;2022-10-30T04:42:01;12.82;;;8.70;;
38312;SDS011;24114;52.260;6.714;2022-10-30T04:44:29;12.80;;;8.63;;
38312;SDS011;24114;52.260;6.714;2022-10-30T04:46:56;11.13;;;9.15;;
38312;SDS011;24114;52.260;6.714;2022-10-30T04:49:24;10.68;;;8.00;;
38312;SDS011;24114;52.260;6.714;2022-10-30T04:51:52;12.82;;;8.85;;
38312;SDS011;24114;52.260;6.714;2022-10-30T04:54:19;11.05;;;8.77;;
38312;SDS011;24114;52.260;6.714;2022-10-30T04:56:49;11.75;;;8.57;;
38312;SDS011;24114;52.260;6.714;2022-10-30T04:59:16;14.00;;;9.13;;
38312;SDS011;24114;52.260;6.714;2022-10-30T05:01:44;12.10;;;8.33;;
38312;SDS011;24114;52.260;6.714;2022-10-30T05:04:12;12.02;;;9.02;;
38312;SDS011;24114;52.260;6.714;2022-10-30T05:06:39;14.57;;;9.43;;
38312;SDS011;24114;52.260;6.714;2022-10-30T05:09:07;11.02;;;8.43;;
38312;SDS011;24114;52.260;6.714;2022-10-30T05:11:35;12.63;;;8.67;;
38312;SDS011;24114;52.260;6.714;2022-10-30T05:14:04;13.05;;;9.18;;
38312;SDS011;24114;52.260;6.714;2022-10-30T05:16:32;14.02;;;8.40;;
38312;SDS011;24114;52.260;6.714;2022-10-30T05:18:59;11.88;;;8.27;;
38312;SDS011;24114;52.260;6.714;2022-10-30T05:21:27;13.50;;;8.52;;
38312;SDS011;24114;52.260;6.714;2022-10-30T05:23:54;10.43;;;8.43;;
38312;SDS011;24114;52.260;6.714;2022-10-30T05:26:22;14.07;;;9.30;;
38312;SDS011;24114;52.260;6.714;2022-10-30T05:28:50;11.60;;;8.70;;
38312;SDS011;24114;52.260;6.714;2022-10-30T05:31:19;14.07;;;9.00;;
38312;SDS011;24114;52.260;6.714;2022-10-30T05:33:47;12.55;;;9.52;;
38312;SDS011;24114;52.260;6.714;2022-10-30T05:36:14;12.70;;;9.02;;
38312;SDS011;24114;52.260;6.714;2022-10-30T05:38:42;14.15;;;8.50;;
38312;SDS011;24114;52.260;6.714;2022-10-30T05:41:11;11.53;;;8.60;;
38312;SDS011;24114;52.260;6.714;2022-10-30T05:43:39;10.85;;;8.60;;
38312;SDS011;24114;52.260;6.714;2022-10-30T05:46:07;12.35;;;8.52;;
38312;SDS011;24114;52.260;6.714;2022-10-30T05:48:36;13.52;;;9.38;;
38312;SDS011;24114;52.260;6.714;2022-10-30T05:51:03;12.88;;;9.60;;
38312;SDS011;24114;52.260;6.714;2022-10-30T05:53:33;15.60;;;9.30;;
38312;SDS011;24114;52.260;6.714;2022-10-30T05:56:01;13.73;;;9.80;;
38312;SDS011;24114;52.260;6.714;2022-10-30T05:58:29;14.25;;;10.40;;
38312;SDS011;24114;52.260;6.714;2022-10-30T06:00:56;16.05;;;9.60;;
38312;SDS011;24114;52.260;6.714;2022-10-30T06:03:24;11.95;;;9.30;;
38312;SDS011;24114;52.260;6.714;2022-10-30T06:05:53;12.70;;;8.80;;
38312;SDS011;24114;52.260;6.714;2022-10-30T06:08:21;12.23;;;9.30;;
38312;SDS011;24114;52.260;6.714;2022-10-30T06:10:48;13.55;;;9.32;;
38312;SDS011;24114;52.260;6.714;2022-10-30T06:13:16;11.13;;;9.02;;
38312;SDS011;24114;52.260;6.714;2022-10-30T06:15:44;13.55;;;8.65;;
38312;SDS011;24114;52.260;6.714;2022-10-30T06:18:11;11.82;;;8.38;;
38312;SDS011;24114;52.260;6.714;2022-10-30T06:20:39;11.15;;;8.90;;
38312;SDS011;24114;52.260;6.714;2022-10-30T06:23:08;12.52;;;8.63;;
38312;SDS011;24114;52.260;6.714;2022-10-30T06:25:36;11.85;;;8.05;;
38312;SDS011;24114;52.260;6.714;2022-10-30T06:28:06;13.35;;;9.10;;
38312;SDS011;24114;52.260;6.714;2022-10-30T06:30:35;12.43;;;8.63;;
38312;SDS011;24114;52.260;6.714;2022-10-30T06:33:04;14.10;;;8.23;;
38312;SDS011;24114;52.260;6.714;2022-10-30T06:35:32;11.10;;;8.63;;
38312;SDS011;24114;52.260;6.714;2022-10-30T06:37:59;11.47;;;8.60;;
38312;SDS011;24114;52.260;6.714;2022-10-30T06:40:28;9.65;;;8.50;;
38312;SDS011;24114;52.260;6.714;2022-10-30T06:42:56;10.55;;;8.00;;
38312;SDS011;24114;52.260;6.714;2022-10-30T06:45:25;13.48;;;8.50;;
38312;SDS011;24114;52.260;6.714;2022-10-30T06:47:52;10.38;;;8.15;;
38312;SDS011;24114;52.260;6.714;2022-10-30T06:50:21;11.43;;;8.40;;
38312;SDS011;24114;52.260;6.714;2022-10-30T06:52:49;10.93;;;8.07;;
38312;SDS011;24114;52.260;6.714;2022-10-30T06:55:17;13.27;;;8.15;;
38312;SDS011;24114;52.260;6.714;2022-10-30T06:57:48;11.27;;;8.25;;
38312;SDS011;24114;52.260;6.714;2022-10-30T07:00:19;15.07;;;9.15;;
38312;SDS011;24114;52.260;6.714;2022-10-30T07:02:53;13.85;;;9.07;;
38312;SDS011;24114;52.260;6.714;2022-10-30T07:05:22;13.32;;;9.18;;
38312;SDS011;24114;52.260;6.714;2022-10-30T07:07:50;11.38;;;8.65;;
38312;SDS011;24114;52.260;6.714;2022-10-30T07:10:18;12.07;;;9.10;;
38312;SDS011;24114;52.260;6.714;2022-10-30T07:12:54;19.83;;;10.55;;
38312;SDS011;24114;52.260;6.714;2022-10-30T07:15:23;16.48;;;9.65;;
38312;SDS011;24114;52.260;6.714;2022-10-30T07:17:52;15.27;;;8.77;;
38312;SDS011;24114;52.260;6.714;2022-10-30T07:20:20;27.17;;;13.52;;
38312;SDS011;24114;52.260;6.714;2022-10-30T07:22:48;14.60;;;9.40;;
38312;SDS011;24114;52.260;6.714;2022-10-30T07:25:16;12.88;;;8.60;;
38312;SDS011;24114;52.260;6.714;2022-10-30T07:27:45;10.85;;;8.98;;
38312;SDS011;24114;52.260;6.714;2022-10-30T07:30:15;12.38;;;9.00;;
38312;SDS011;24114;52.260;6.714;2022-10-30T07:32:44;11.35;;;8.63;;
38312;SDS011;24114;52.260;6.714;2022-10-30T07:35:12;14.27;;;8.77;;
38312;SDS011;24114;52.260;6.714;2022-10-30T07:37:40;12.27;;;8.90;;
38312;SDS011;24114;52.260;6.714;2022-10-30T07:40:08;13.02;;;8.93;;
38312;SDS011;24114;52.260;6.714;2022-10-30T07:42:38;14.57;;;9.57;;
38312;SDS011;24114;52.260;6.714;2022-10-30T07:45:06;13.20;;;9.32;;
38312;SDS011;24114;52.260;6.714;2022-10-30T07:47:41;11.82;;;9.48;;
38312;SDS011;24114;52.260;6.714;2022-10-30T07:50:09;14.52;;;10.20;;
38312;SDS011;24114;52.260;6.714;2022-10-30T07:52:37;15.57;;;10.40;;
38312;SDS011;24114;52.260;6.714;2022-10-30T07:55:05;15.88;;;10.85;;
38312;SDS011;24114;52.260;6.714;2022-10-30T07:57:34;13.45;;;10.07;;
38312;SDS011;24114;52.260;6.714;2022-10-30T08:00:03;14.38;;;10.43;;
38312;SDS011;24114;52.260;6.714;2022-10-30T08:02:31;14.80;;;10.77;;
38312;SDS011;24114;52.260;6.714;2022-10-30T08:05:01;14.50;;;11.20;;
38312;SDS011;24114;52.260;6.714;2022-10-30T08:07:29;16.87;;;11.30;;
38312;SDS011;24114;52.260;6.714;2022-10-30T08:09:57;14.40;;;10.63;;
38312;SDS011;24114;52.260;6.714;2022-10-30T08:12:25;13.98;;;10.82;;
38312;SDS011;24114;52.260;6.714;2022-10-30T08:14:53;15.27;;;10.93;;
38312;SDS011;24114;52.260;6.714;2022-10-30T08:17:21;14.77;;;10.88;;
38312;SDS011;24114;52.260;6.714;2022-10-30T08:19:49;12.65;;;10.20;;
38312;SDS011;24114;52.260;6.714;2022-10-30T08:22:18;16.83;;;11.18;;
38312;SDS011;24114;52.260;6.714;2022-10-30T08:24:46;14.75;;;9.98;;
38312;SDS011;24114;52.260;6.714;2022-10-30T08:27:13;13.60;;;10.50;;
38312;SDS011;24114;52.260;6.714;2022-10-30T08:29:41;14.30;;;10.45;;
38312;SDS011;24114;52.260;6.714;2022-10-30T08:32:09;14.80;;;10.32;;
38312;SDS011;24114;52.260;6.714;2022-10-30T08:34:36;13.40;;;10.27;;
38312;SDS011;24114;52.260;6.714;2022-10-30T08:37:04;13.95;;;9.65;;
38312;SDS011;24114;52.260;6.714;2022-10-30T08:39:34;12.80;;;9.63;;
38312;SDS011;24114;52.260;6.714;2022-10-30T08:42:02;16.70;;;10.40;;
38312;SDS011;24114;52.260;6.714;2022-10-30T08:44:29;15.32;;;10.88;;
38312;SDS011;24114;52.260;6.714;2022-10-30T08:46:57;12.73;;;10.23;;
38312;SDS011;24114;52.260;6.714;2022-10-30T08:49:25;12.98;;;10.60;;
38312;SDS011;24114;52.260;6.714;2022-10-30T08:51:53;16.30;;;10.63;;
38312;SDS011;24114;52.260;6.714;2022-10-30T08:54:20;16.17;;;10.45;;
38312;SDS011;24114;52.260;6.714;2022-10-30T08:56:50;14.13;;;9.97;;
38312;SDS011;24114;52.260;6.714;2022-10-30T08:59:18;15.25;;;10.63;;
38312;SDS011;24114;52.260;6.714;2022-10-30T09:01:46;15.10;;;10.82;;
38312;SDS011;24114;52.260;6.714;2022-10-30T09:04:16;12.70;;;10.05;;
38312;SDS011;24114;52.260;6.714;2022-10-30T09:06:44;16.70;;;10.90;;
38312;SDS011;24114;52.260;6.714;2022-10-30T09:09:11;13.97;;;10.50;;
38312;SDS011;24114;52.260;6.714;2022-10-30T09:11:39;16.88;;;10.88;;
38312;SDS011;24114;52.260;6.714;2022-10-30T09:14:08;18.80;;;11.20;;
38312;SDS011;24114;52.260;6.714;2022-10-30T09:16:36;16.83;;;11.30;;
38312;SDS011;24114;52.260;6.714;2022-10-30T09:19:04;15.88;;;11.15;;
38312;SDS011;24114;52.260;6.714;2022-10-30T09:21:31;14.98;;;10.98;;
38312;SDS011;24114;52.260;6.714;2022-10-30T09:23:59;16.75;;;11.43;;
38312;SDS011;24114;52.260;6.714;2022-10-30T09:26:27;15.90;;;11.70;;
38312;SDS011;24114;52.260;6.714;2022-10-30T09:28:55;16.80;;;11.38;;
38312;SDS011;24114;52.260;6.714;2022-10-30T09:31:24;15.05;;;11.13;;
38312;SDS011;24114;52.260;6.714;2022-10-30T09:33:52;14.60;;;11.70;;
38312;SDS011;24114;52.260;6.714;2022-10-30T09:36:20;15.83;;;11.80;;
38312;SDS011;24114;52.260;6.714;2022-10-30T09:38:48;16.05;;;11.40;;
38312;SDS011;24114;52.260;6.714;2022-10-30T09:41:25;16.47;;;11.03;;
38312;SDS011;24114;52.260;6.714;2022-10-30T09:44:07;13.77;;;10.45;;
38312;SDS011;24114;52.260;6.714;2022-10-30T09:46:47;15.07;;;10.82;;
38312;SDS011;24114;52.260;6.714;2022-10-30T09:49:25;14.48;;;10.35;;
38312;SDS011;24114;52.260;6.714;2022-10-30T09:52:05;16.23;;;10.23;;
38312;SDS011;24114;52.260;6.714;2022-10-30T09:54:38;16.25;;;10.25;;
38312;SDS011;24114;52.260;6.714;2022-10-30T09:57:14;14.93;;;10.10;;
38312;SDS011;24114;52.260;6.714;2022-10-30T09:59:49;14.98;;;10.15;;
38312;SDS011;24114;52.260;6.714;2022-10-30T10:02:31;13.45;;;10.00;;
38312;SDS011;24114;52.260;6.714;2022-10-30T10:05:03;16.60;;;10.65;;
38312;SDS011;24114;52.260;6.714;2022-10-30T10:07:34;15.93;;;9.38;;
38312;SDS011;24114;52.260;6.714;2022-10-30T10:10:05;16.27;;;9.50;;
38312;SDS011;24114;52.260;6.714;2022-10-30T10:12:38;13.98;;;9.57;;
38312;SDS011;24114;52.260;6.714;2022-10-30T10:15:09;14.73;;;9.45;;
38312;SDS011;24114;52.260;6.714;2022-10-30T10:17:40;15.98;;;9.70;;
38312;SDS011;24114;52.260;6.714;2022-10-30T10:20:12;14.13;;;9.30;;
38312;SDS011;24114;52.260;6.714;2022-10-30T10:22:44;15.68;;;9.82;;
38312;SDS011;24114;52.260;6.714;2022-10-30T10:25:15;16.08;;;10.13;;
38312;SDS011;24114;52.260;6.714;2022-10-30T10:27:50;15.00;;;10.03;;
38312;SDS011;24114;52.260;6.714;2022-10-30T10:30:21;17.20;;;10.05;;
38312;SDS011;24114;52.260;6.714;2022-10-30T10:33:00;15.40;;;10.32;;
38312;SDS011;24114;52.260;6.714;2022-10-30T10:35:36;14.48;;;10.13;;
38312;SDS011;24114;52.260;6.714;2022-10-30T10:38:16;17.08;;;10.02;;
38312;SDS011;24114;52.260;6.714;2022-10-30T10:40:53;15.27;;;10.05;;
38312;SDS011;24114;52.260;6.714;2022-10-30T10:43:27;14.10;;;9.90;;
38312;SDS011;24114;52.260;6.714;2022-10-30T10:46:07;14.10;;;9.70;;
38312;SDS011;24114;52.260;6.714;2022-10-30T10:48:46;17.52;;;9.90;;
38312;SDS011;24114;52.260;6.714;2022-10-30T10:51:21;17.48;;;10.40;;
38312;SDS011;24114;52.260;6.714;2022-10-30T10:53:53;14.95;;;9.98;;
38312;SDS011;24114;52.260;6.714;2022-10-30T10:56:24;17.13;;;9.60;;
38312;SDS011;24114;52.260;6.714;2022-10-30T10:58:56;15.85;;;9.13;;
38312;SDS011;24114;52.260;6.714;2022-10-30T11:01:30;12.25;;;8.95;;
38312;SDS011;24114;52.260;6.714;2022-10-30T11:04:13;15.68;;;9.00;;
38312;SDS011;24114;52.260;6.714;2022-10-30T11:06:43;13.07;;;8.82;;
38312;SDS011;24114;52.260;6.714;2022-10-30T11:09:15;16.65;;;9.23;;
38312;SDS011;24114;52.260;6.714;2022-10-30T11:11:45;13.80;;;9.00;;
38312;SDS011;24114;52.260;6.714;2022-10-30T11:14:13;13.93;;;8.83;;
38312;SDS011;24114;52.260;6.714;2022-10-30T11:16:53;15.05;;;9.43;;
38312;SDS011;24114;52.260;6.714;2022-10-30T14:06:11;14.55;;;8.32;;
38312;SDS011;24114;52.260;6.714;2022-10-30T14:08:46;18.67;;;9.20;;
38312;SDS011;24114;52.260;6.714;2022-10-30T14:11:16;15.07;;;9.07;;
38312;SDS011;24114;52.260;6.714;2022-10-30T14:13:45;14.80;;;8.88;;
38312;SDS011;24114;52.260;6.714;2022-10-30T14:16:31;16.77;;;9.63;;
38312;SDS011;24114;52.260;6.714;2022-10-30T14:19:08;16.73;;;9.18;;
38312;SDS011;24114;52.260;6.714;2022-10-30T14:21:37;15.07;;;9.20;;
38312;SDS011;24114;52.260;6.714;2022-10-30T14:24:10;17.60;;;9.20;;
38312;SDS011;24114;52.260;6.714;2022-10-30T14:26:41;15.27;;;9.15;;
38312;SDS011;24114;52.260;6.714;2022-10-30T14:29:37;17.17;;;9.23;;
38312;SDS011;24114;52.260;6.714;2022-10-30T14:32:33;15.57;;;9.52;;
38312;SDS011;24114;52.260;6.714;2022-10-30T14:35:23;16.20;;;9.35;;
38312;SDS011;24114;52.260;6.714;2022-10-30T14:37:56;15.53;;;8.87;;
38312;SDS011;24114;52.260;6.714;2022-10-30T14:40:35;14.93;;;8.85;;
38312;SDS011;24114;52.260;6.714;2022-10-30T14:45:40;16.73;;;8.55;;
38312;SDS011;24114;52.260;6.714;2022-10-30T14:48:13;16.48;;;8.25;;
38312;SDS011;24114;52.260;6.714;2022-10-30T14:50:56;16.47;;;7.63;;
38312;SDS011;24114;52.260;6.714;2022-10-30T14:53:33;22.92;;;8.82;;
38312;SDS011;24114;52.260;6.714;2022-10-30T14:58:16;14.52;;;7.60;;
38312;SDS011;24114;52.260;6.714;2022-10-30T15:00:47;17.58;;;8.60;;
38312;SDS011;24114;52.260;6.714;2022-10-30T15:03:24;13.40;;;8.27;;
38312;SDS011;24114;52.260;6.714;2022-10-30T15:06:05;13.90;;;8.03;;
38312;SDS011;24114;52.260;6.714;2022-10-30T15:08:44;13.07;;;7.53;;
38312;SDS011;24114;52.260;6.714;2022-10-30T15:11:24;15.80;;;7.47;;
38312;SDS011;24114;52.260;6.714;2022-10-30T15:14:17;14.13;;;7.90;;
38312;SDS011;24114;52.260;6.714;2022-10-30T15:17:10;12.25;;;7.38;;
38312;SDS011;24114;52.260;6.714;2022-10-30T15:19:42;12.45;;;7.35;;
38312;SDS011;24114;52.260;6.714;2022-10-30T15:22:11;14.68;;;7.55;;
38312;SDS011;24114;52.260;6.714;2022-10-30T15:24:43;16.88;;;8.20;;
38312;SDS011;24114;52.260;6.714;2022-10-30T15:27:13;12.53;;;7.60;;
38312;SDS011;24114;52.260;6.714;2022-10-30T15:29:45;14.80;;;7.60;;
38312;SDS011;24114;52.260;6.714;2022-10-30T15:32:16;15.27;;;7.80;;
38312;SDS011;24114;52.260;6.714;2022-10-30T15:34:51;13.97;;;8.83;;
38312;SDS011;24114;52.260;6.714;2022-10-30T15:37:20;12.38;;;8.43;;
38312;SDS011;24114;52.260;6.714;2022-10-30T15:39:48;14.77;;;8.70;;
38312;SDS011;24114;52.260;6.714;2022-10-30T15:42:16;15.85;;;8.43;;
38312;SDS011;24114;52.260;6.714;2022-10-30T15:44:45;14.52;;;9.52;;
38312;SDS011;24114;52.260;6.714;2022-10-30T15:47:13;14.80;;;8.80;;
38312;SDS011;24114;52.260;6.714;2022-10-30T15:49:45;15.25;;;9.05;;
38312;SDS011;24114;52.260;6.714;2022-10-30T15:52:16;16.35;;;8.95;;
38312;SDS011;24114;52.260;6.714;2022-10-30T15:54:46;15.50;;;9.73;;
38312;SDS011;24114;52.260;6.714;2022-10-30T15:57:15;16.27;;;9.63;;
38312;SDS011;24114;52.260;6.714;2022-10-30T16:00:07;14.88;;;9.50;;
38312;SDS011;24114;52.260;6.714;2022-10-30T16:02:45;14.65;;;9.93;;
38312;SDS011;24114;52.260;6.714;2022-10-30T16:05:21;16.63;;;9.73;;
38312;SDS011;24114;52.260;6.714;2022-10-30T16:07:49;13.70;;;9.30;;
38312;SDS011;24114;52.260;6.714;2022-10-30T16:10:17;15.63;;;9.52;;
38312;SDS011;24114;52.260;6.714;2022-10-30T16:12:45;16.73;;;9.60;;
38312;SDS011;24114;52.260;6.714;2022-10-30T16:15:20;16.35;;;9.68;;
38312;SDS011;24114;52.260;6.714;2022-10-30T16:17:57;16.55;;;10.13;;
38312;SDS011;24114;52.260;6.714;2022-10-30T16:20:29;15.88;;;10.40;;
38312;SDS011;24114;52.260;6.714;2022-10-30T16:22:57;15.48;;;10.00;;
38312;SDS011;24114;52.260;6.714;2022-10-30T16:25:25;17.35;;;11.13;;
38312;SDS011;24114;52.260;6.714;2022-10-30T16:27:52;20.08;;;14.95;;
38312;SDS011;24114;52.260;6.714;2022-10-30T16:30:21;21.93;;;14.73;;
38312;SDS011;24114;52.260;6.714;2022-10-30T16:32:54;18.67;;;13.07;;
38312;SDS011;24114;52.260;6.714;2022-10-30T16:37:05;21.90;;;14.05;;
38312;SDS011;24114;52.260;6.714;2022-10-30T16:39:37;19.05;;;15.63;;
38312;SDS011;24114;52.260;6.714;2022-10-30T16:42:05;16.40;;;11.67;;
38312;SDS011;24114;52.260;6.714;2022-10-30T16:44:49;28.70;;;19.20;;
38312;SDS011;24114;52.260;6.714;2022-10-30T16:47:21;27.50;;;21.87;;
38312;SDS011;24114;52.260;6.714;2022-10-30T16:49:51;30.67;;;27.30;;
38312;SDS011;24114;52.260;6.714;2022-10-30T16:52:21;29.70;;;24.83;;
38312;SDS011;24114;52.260;6.714;2022-10-30T16:54:52;29.17;;;23.27;;
38312;SDS011;24114;52.260;6.714;2022-10-30T16:57:26;28.70;;;24.23;;
38312;SDS011;24114;52.260;6.714;2022-10-30T16:59:56;24.05;;;21.42;;
38312;SDS011;24114;52.260;6.714;2022-10-30T17:02:26;23.15;;;20.50;;
38312;SDS011;24114;52.260;6.714;2022-10-30T17:05:03;24.58;;;19.80;;
38312;SDS011;24114;52.260;6.714;2022-10-30T17:07:35;27.38;;;20.23;;
38312;SDS011;24114;52.260;6.714;2022-10-30T17:10:27;25.63;;;19.73;;
38312;SDS011;24114;52.260;6.714;2022-10-30T17:15:55;27.48;;;19.02;;
38312;SDS011;24114;52.260;6.714;2022-10-30T17:18:26;22.10;;;17.03;;
38312;SDS011;24114;52.260;6.714;2022-10-30T17:21:00;20.40;;;16.10;;
38312;SDS011;24114;52.260;6.714;2022-10-30T17:23:31;22.80;;;16.45;;
38312;SDS011;24114;52.260;6.714;2022-10-30T17:26:04;24.70;;;18.27;;
38312;SDS011;24114;52.260;6.714;2022-10-30T17:28:34;27.75;;;21.05;;
38312;SDS011;24114;52.260;6.714;2022-10-30T17:33:47;24.63;;;21.20;;
38312;SDS011;24114;52.260;6.714;2022-10-30T17:36:30;30.83;;;23.02;;
38312;SDS011;24114;52.260;6.714;2022-10-30T17:38:58;27.83;;;22.30;;
38312;SDS011;24114;52.260;6.714;2022-10-30T17:41:26;24.10;;;19.83;;
38312;SDS011;24114;52.260;6.714;2022-10-30T17:43:54;20.50;;;17.00;;
38312;SDS011;24114;52.260;6.714;2022-10-30T17:46:24;21.13;;;15.13;;
38312;SDS011;24114;52.260;6.714;2022-10-30T17:48:51;20.63;;;15.23;;